GLD166 SIFC-SNIO
Flight info
| Callsign | GLD166 |
|---|---|
| Flight time | 2h 10m |
| Altitude | 4500 |
| Route | REA N0150A1500 0748S03452W N0150A2100 0806S03509W 0807S03515W N0150A4500 0813S03528W 0824S03541W 0837S03557W 0853S03612W 0908S03629W 0925S03640W 1003S03741W 1037S03821W |
| Aircraft | C182/M-SDFGIRY/S |
Departure
| Time | 2026-04-27 14:26 |
|---|---|
| Airport | Coroa do Avião Airport (SIFC) |
Arrival
| Time | 2026-04-27 16:36 |
|---|---|
| Airport | Cipó Airport (SNIO) |
| Time | Latitude | Longitude | Altitude | Speed | Heading |
|---|---|---|---|---|---|
| 2026-04-27 14:21 | -7.84470 | -34.89255 | 36 ft | 0 kts | 13° |
| 2026-04-27 14:23 | -7.84453 | -34.89251 | 35 ft | 6 kts | 19° |
| 2026-04-27 14:23 | -7.84442 | -34.89245 | 35 ft | 0 kts | 37° |
| 2026-04-27 14:24 | -7.84439 | -34.89242 | 35 ft | 4 kts | 37° |
| 2026-04-27 14:24 | -7.84445 | -34.89184 | 37 ft | 19 kts | 152° |
| 2026-04-27 14:24 | -7.84686 | -34.89087 | 38 ft | 54 kts | 159° |
| 2026-04-27 14:24 | -7.85077 | -34.88928 | 101 ft | 61 kts | 157° |
| 2026-04-27 14:25 | -7.85520 | -34.88703 | 181 ft | 83 kts | 138° |
| 2026-04-27 14:25 | -7.85584 | -34.88028 | 329 ft | 109 kts | 80° |
| 2026-04-27 14:25 | -7.85164 | -34.87359 | 554 ft | 127 kts | 44° |
| 2026-04-27 14:25 | -7.84284 | -34.86956 | 606 ft | 148 kts | 26° |
| 2026-04-27 14:26 | -7.83318 | -34.86516 | 675 ft | 156 kts | 28° |
| 2026-04-27 14:26 | -7.82277 | -34.86092 | 729 ft | 165 kts | 14° |
| 2026-04-27 14:26 | -7.81209 | -34.86360 | 831 ft | 161 kts | 319° |
| 2026-04-27 14:26 | -7.80670 | -34.87304 | 971 ft | 155 kts | 288° |
| 2026-04-27 14:27 | -7.80181 | -34.88275 | 1136 ft | 156 kts | 301° |
| 2026-04-27 14:27 | -7.79564 | -34.89177 | 1309 ft | 156 kts | 301° |
| 2026-04-27 14:27 | -7.78952 | -34.90076 | 1479 ft | 154 kts | 301° |
| 2026-04-27 14:27 | -7.78324 | -34.90993 | 1498 ft | 164 kts | 301° |
| 2026-04-27 14:28 | -7.77671 | -34.91962 | 1502 ft | 170 kts | 301° |
| 2026-04-27 14:28 | -7.77009 | -34.92953 | 1503 ft | 170 kts | 301° |
| 2026-04-27 14:28 | -7.76349 | -34.93938 | 1504 ft | 169 kts | 301° |
| 2026-04-27 14:28 | -7.75878 | -34.95000 | 1464 ft | 166 kts | 270° |
| 2026-04-27 14:29 | -7.76268 | -34.96023 | 1427 ft | 156 kts | 225° |
| 2026-04-27 14:29 | -7.76809 | -34.96989 | 1417 ft | 161 kts | 244° |
| 2026-04-27 14:29 | -7.77084 | -34.98101 | 1413 ft | 164 kts | 253° |
| 2026-04-27 14:29 | -7.77307 | -34.99218 | 1415 ft | 162 kts | 253° |
| 2026-04-27 14:30 | -7.77532 | -35.00322 | 1419 ft | 164 kts | 253° |
| 2026-04-27 14:30 | -7.77769 | -35.01450 | 1419 ft | 164 kts | 253° |
| 2026-04-27 14:30 | -7.78011 | -35.02567 | 1422 ft | 163 kts | 253° |
| 2026-04-27 14:30 | -7.78246 | -35.03689 | 1420 ft | 163 kts | 252° |
| 2026-04-27 14:31 | -7.78468 | -35.04820 | 1422 ft | 166 kts | 253° |
| 2026-04-27 14:31 | -7.78697 | -35.05966 | 1421 ft | 165 kts | 252° |
| 2026-04-27 14:31 | -7.78933 | -35.07088 | 1419 ft | 163 kts | 253° |
| 2026-04-27 14:31 | -7.79238 | -35.08178 | 1382 ft | 155 kts | 235° |
| 2026-04-27 14:32 | -7.80054 | -35.08778 | 1347 ft | 145 kts | 198° |
| 2026-04-27 14:32 | -7.81009 | -35.09161 | 1353 ft | 149 kts | 199° |
| 2026-04-27 14:32 | -7.81982 | -35.09557 | 1356 ft | 152 kts | 197° |
| 2026-04-27 14:32 | -7.82939 | -35.09977 | 1361 ft | 152 kts | 199° |
| 2026-04-27 14:33 | -7.83909 | -35.10412 | 1357 ft | 153 kts | 200° |
| 2026-04-27 14:33 | -7.84879 | -35.10816 | 1369 ft | 151 kts | 198° |
| 2026-04-27 14:33 | -7.85849 | -35.11226 | 1372 ft | 152 kts | 198° |
| 2026-04-27 14:33 | -7.86826 | -35.11642 | 1356 ft | 150 kts | 198° |
| 2026-04-27 14:34 | -7.87783 | -35.12066 | 1377 ft | 152 kts | 200° |
| 2026-04-27 14:34 | -7.88769 | -35.12493 | 1367 ft | 156 kts | 199° |
| 2026-04-27 14:34 | -7.89764 | -35.12922 | 1368 ft | 155 kts | 198° |
| 2026-04-27 14:34 | -7.90746 | -35.13346 | 1366 ft | 152 kts | 199° |
| 2026-04-27 14:35 | -7.91722 | -35.13745 | 1358 ft | 151 kts | 196° |
| 2026-04-27 14:35 | -7.92689 | -35.14192 | 1359 ft | 154 kts | 199° |
| 2026-04-27 14:35 | -7.93669 | -35.14643 | 1368 ft | 154 kts | 199° |
| 2026-04-27 14:35 | -7.94693 | -35.14888 | 1348 ft | 152 kts | 175° |
| 2026-04-27 14:36 | -7.95729 | -35.14753 | 1334 ft | 151 kts | 176° |
| 2026-04-27 14:36 | -7.96767 | -35.14730 | 1336 ft | 148 kts | 179° |
| 2026-04-27 14:36 | -7.97804 | -35.14707 | 1339 ft | 149 kts | 177° |
| 2026-04-27 14:36 | -7.98852 | -35.14689 | 1341 ft | 152 kts | 177° |
| 2026-04-27 14:37 | -7.99898 | -35.14674 | 1339 ft | 150 kts | 177° |
| 2026-04-27 14:37 | -8.00936 | -35.14668 | 1331 ft | 148 kts | 178° |
| 2026-04-27 14:37 | -8.01958 | -35.14650 | 1335 ft | 146 kts | 178° |
| 2026-04-27 14:37 | -8.02987 | -35.14599 | 1341 ft | 149 kts | 178° |
| 2026-04-27 14:38 | -8.04015 | -35.14566 | 1325 ft | 144 kts | 177° |
| 2026-04-27 14:38 | -8.05003 | -35.14569 | 1323 ft | 142 kts | 178° |
| 2026-04-27 14:38 | -8.05999 | -35.14552 | 1329 ft | 144 kts | 178° |
| 2026-04-27 14:38 | -8.06995 | -35.14497 | 1338 ft | 144 kts | 177° |
| 2026-04-27 14:39 | -8.07944 | -35.14498 | 1575 ft | 132 kts | 188° |
| 2026-04-27 14:39 | -8.08587 | -35.15122 | 1825 ft | 135 kts | 246° |
| 2026-04-27 14:39 | -8.08735 | -35.16030 | 2168 ft | 128 kts | 254° |
| 2026-04-27 14:39 | -8.08936 | -35.16978 | 2164 ft | 146 kts | 252° |
| 2026-04-27 14:40 | -8.09130 | -35.17996 | 2166 ft | 149 kts | 254° |
| 2026-04-27 14:40 | -8.09319 | -35.19019 | 2182 ft | 148 kts | 253° |
| 2026-04-27 14:40 | -8.09525 | -35.20058 | 2186 ft | 154 kts | 253° |
| 2026-04-27 14:40 | -8.09736 | -35.21140 | 2182 ft | 159 kts | 253° |
| 2026-04-27 14:41 | -8.09939 | -35.22225 | 2287 ft | 156 kts | 254° |
| 2026-04-27 14:41 | -8.10265 | -35.23239 | 2420 ft | 149 kts | 238° |
| 2026-04-27 14:41 | -8.10676 | -35.24179 | 2560 ft | 145 kts | 242° |
| 2026-04-27 14:41 | -8.11032 | -35.25098 | 2701 ft | 141 kts | 242° |
| 2026-04-27 14:42 | -8.11400 | -35.26025 | 2845 ft | 143 kts | 242° |
| 2026-04-27 14:42 | -8.11783 | -35.26949 | 2988 ft | 142 kts | 241° |
| 2026-04-27 14:42 | -8.12134 | -35.27873 | 3132 ft | 141 kts | 242° |
| 2026-04-27 14:42 | -8.12481 | -35.28806 | 3285 ft | 142 kts | 242° |
| 2026-04-27 14:43 | -8.12839 | -35.29739 | 3427 ft | 143 kts | 242° |
| 2026-04-27 14:43 | -8.13200 | -35.30676 | 3567 ft | 143 kts | 242° |
| 2026-04-27 14:43 | -8.13545 | -35.31617 | 3710 ft | 143 kts | 242° |
| 2026-04-27 14:43 | -8.13902 | -35.32565 | 3854 ft | 145 kts | 242° |
| 2026-04-27 14:44 | -8.14262 | -35.33510 | 4000 ft | 143 kts | 242° |
| 2026-04-27 14:44 | -8.14601 | -35.34432 | 4144 ft | 142 kts | 242° |
| 2026-04-27 14:44 | -8.14942 | -35.35366 | 4291 ft | 143 kts | 243° |
| 2026-04-27 14:44 | -8.15296 | -35.36278 | 4542 ft | 137 kts | 242° |
| 2026-04-27 14:45 | -8.15655 | -35.37220 | 4553 ft | 149 kts | 242° |
| 2026-04-27 14:45 | -8.16033 | -35.38222 | 4563 ft | 156 kts | 242° |
| 2026-04-27 14:45 | -8.16425 | -35.39226 | 4563 ft | 154 kts | 241° |
| 2026-04-27 14:45 | -8.16821 | -35.40247 | 4563 ft | 158 kts | 242° |
| 2026-04-27 14:46 | -8.17220 | -35.41304 | 4587 ft | 164 kts | 243° |
| 2026-04-27 14:46 | -8.17662 | -35.42390 | 4581 ft | 167 kts | 241° |
| 2026-04-27 14:46 | -8.18215 | -35.43377 | 4572 ft | 156 kts | 228° |
| 2026-04-27 14:46 | -8.18856 | -35.44255 | 4570 ft | 154 kts | 229° |
| 2026-04-27 14:47 | -8.19505 | -35.45118 | 4581 ft | 156 kts | 227° |
| 2026-04-27 14:47 | -8.20160 | -35.45980 | 4579 ft | 157 kts | 227° |
| 2026-04-27 14:47 | -8.20825 | -35.46857 | 4577 ft | 157 kts | 227° |
| 2026-04-27 14:47 | -8.21489 | -35.47739 | 4576 ft | 158 kts | 228° |
| 2026-04-27 14:48 | -8.22162 | -35.48619 | 4569 ft | 157 kts | 226° |
| 2026-04-27 14:48 | -8.23486 | -35.50384 | 4574 ft | 159 kts | 227° |
| 2026-04-27 14:48 | -8.24160 | -35.51267 | 4578 ft | 159 kts | 226° |
| 2026-04-27 14:49 | -8.24831 | -35.52155 | 4577 ft | 158 kts | 227° |
| 2026-04-27 14:49 | -8.25507 | -35.53042 | 4580 ft | 160 kts | 227° |
| 2026-04-27 14:49 | -8.26187 | -35.53931 | 4579 ft | 160 kts | 227° |
| 2026-04-27 14:49 | -8.26861 | -35.54809 | 4577 ft | 160 kts | 227° |
| 2026-04-27 14:50 | -8.27546 | -35.55692 | 4579 ft | 159 kts | 226° |
| 2026-04-27 14:50 | -8.28227 | -35.56569 | 4581 ft | 158 kts | 227° |
| 2026-04-27 14:50 | -8.28902 | -35.57457 | 4571 ft | 159 kts | 227° |
| 2026-04-27 14:50 | -8.29591 | -35.58337 | 4572 ft | 160 kts | 226° |
| 2026-04-27 14:51 | -8.30277 | -35.59226 | 4582 ft | 160 kts | 226° |
| 2026-04-27 14:51 | -8.30956 | -35.60117 | 4580 ft | 160 kts | 226° |
| 2026-04-27 14:51 | -8.31398 | -35.60717 | 4588 ft | 162 kts | 227° |
| 2026-04-27 14:51 | -8.32079 | -35.61619 | 4570 ft | 159 kts | 226° |
| 2026-04-27 14:52 | -8.32742 | -35.62508 | 4576 ft | 159 kts | 227° |
| 2026-04-27 14:52 | -8.33410 | -35.63386 | 4581 ft | 157 kts | 227° |
| 2026-04-27 14:52 | -8.34085 | -35.64256 | 4576 ft | 157 kts | 226° |
| 2026-04-27 14:52 | -8.34751 | -35.65122 | 4576 ft | 156 kts | 226° |
| 2026-04-27 14:53 | -8.35421 | -35.65980 | 4575 ft | 155 kts | 226° |
| 2026-04-27 14:53 | -8.36086 | -35.66847 | 4572 ft | 157 kts | 227° |
| 2026-04-27 14:53 | -8.36756 | -35.67719 | 4571 ft | 158 kts | 227° |
| 2026-04-27 14:53 | -8.37427 | -35.68591 | 4574 ft | 157 kts | 227° |
| 2026-04-27 14:54 | -8.38103 | -35.69465 | 4573 ft | 158 kts | 226° |
| 2026-04-27 14:54 | -8.38777 | -35.70335 | 4576 ft | 160 kts | 226° |
| 2026-04-27 14:54 | -8.39461 | -35.71221 | 4575 ft | 160 kts | 226° |
| 2026-04-27 14:54 | -8.40146 | -35.72104 | 4576 ft | 159 kts | 227° |
| 2026-04-27 14:55 | -8.40832 | -35.72980 | 4572 ft | 158 kts | 226° |
| 2026-04-27 14:55 | -8.41512 | -35.73862 | 4582 ft | 160 kts | 226° |
| 2026-04-27 14:55 | -8.42199 | -35.74740 | 4581 ft | 160 kts | 227° |
| 2026-04-27 14:55 | -8.42896 | -35.75620 | 4579 ft | 159 kts | 227° |
| 2026-04-27 14:56 | -8.43582 | -35.76474 | 4578 ft | 159 kts | 226° |
| 2026-04-27 14:56 | -8.44279 | -35.77343 | 4578 ft | 158 kts | 226° |
| 2026-04-27 14:56 | -8.44964 | -35.78212 | 4568 ft | 159 kts | 226° |
| 2026-04-27 14:56 | -8.45651 | -35.79083 | 4579 ft | 158 kts | 225° |
| 2026-04-27 14:57 | -8.46332 | -35.79962 | 4574 ft | 158 kts | 228° |
| 2026-04-27 14:57 | -8.47019 | -35.80835 | 4583 ft | 160 kts | 225° |
| 2026-04-27 14:57 | -8.47720 | -35.81725 | 4581 ft | 163 kts | 227° |
| 2026-04-27 14:57 | -8.48432 | -35.82618 | 4586 ft | 163 kts | 226° |
| 2026-04-27 14:58 | -8.49131 | -35.83506 | 4581 ft | 163 kts | 226° |
| 2026-04-27 14:58 | -8.49840 | -35.84393 | 4587 ft | 162 kts | 226° |
| 2026-04-27 14:58 | -8.50536 | -35.85291 | 4580 ft | 161 kts | 226° |
| 2026-04-27 14:58 | -8.51227 | -35.86169 | 4583 ft | 160 kts | 226° |
| 2026-04-27 14:59 | -8.51912 | -35.87056 | 4584 ft | 160 kts | 226° |
| 2026-04-27 14:59 | -8.52598 | -35.87940 | 4582 ft | 159 kts | 226° |
| 2026-04-27 14:59 | -8.53291 | -35.88817 | 4580 ft | 161 kts | 226° |
| 2026-04-27 14:59 | -8.53998 | -35.89704 | 4580 ft | 161 kts | 227° |
| 2026-04-27 15:00 | -8.54703 | -35.90581 | 4580 ft | 159 kts | 226° |
| 2026-04-27 15:00 | -8.55396 | -35.91447 | 4577 ft | 158 kts | 226° |
| 2026-04-27 15:00 | -8.56067 | -35.92300 | 4575 ft | 156 kts | 226° |
| 2026-04-27 15:00 | -8.56740 | -35.93161 | 4582 ft | 156 kts | 226° |
| 2026-04-27 15:01 | -8.57423 | -35.94023 | 4583 ft | 158 kts | 225° |
| 2026-04-27 15:01 | -8.58109 | -35.94888 | 4582 ft | 158 kts | 226° |
| 2026-04-27 15:01 | -8.58792 | -35.95762 | 4588 ft | 159 kts | 226° |
| 2026-04-27 15:01 | -8.59493 | -35.96628 | 4581 ft | 160 kts | 225° |
| 2026-04-27 15:02 | -8.60193 | -35.97507 | 4581 ft | 161 kts | 227° |
| 2026-04-27 15:02 | -8.60903 | -35.98383 | 4581 ft | 161 kts | 226° |
| 2026-04-27 15:02 | -8.61610 | -35.99262 | 4582 ft | 161 kts | 226° |
| 2026-04-27 15:02 | -8.62310 | -36.00151 | 4579 ft | 161 kts | 226° |
| 2026-04-27 15:03 | -8.63004 | -36.01040 | 4585 ft | 163 kts | 226° |
| 2026-04-27 15:03 | -8.63702 | -36.01944 | 4576 ft | 162 kts | 226° |
| 2026-04-27 15:03 | -8.64409 | -36.02832 | 4580 ft | 164 kts | 226° |
| 2026-04-27 15:03 | -8.65127 | -36.03723 | 4581 ft | 163 kts | 225° |
| 2026-04-27 15:04 | -8.65837 | -36.04607 | 4579 ft | 160 kts | 226° |
| 2026-04-27 15:04 | -8.66537 | -36.05477 | 4577 ft | 160 kts | 227° |
| 2026-04-27 15:04 | -8.67218 | -36.06341 | 4564 ft | 152 kts | 226° |
| 2026-04-27 15:04 | -8.67882 | -36.07179 | 4572 ft | 155 kts | 226° |
| 2026-04-27 15:05 | -8.68556 | -36.08023 | 4562 ft | 154 kts | 225° |
| 2026-04-27 15:05 | -8.69218 | -36.08863 | 4569 ft | 154 kts | 226° |
| 2026-04-27 15:05 | -8.69900 | -36.09708 | 4566 ft | 155 kts | 226° |
| 2026-04-27 15:05 | -8.70594 | -36.10514 | 4568 ft | 152 kts | 221° |
| 2026-04-27 15:06 | -8.71380 | -36.11241 | 4570 ft | 154 kts | 217° |
| 2026-04-27 15:06 | -8.72174 | -36.11980 | 4573 ft | 155 kts | 218° |
| 2026-04-27 15:06 | -8.72980 | -36.12713 | 4575 ft | 157 kts | 218° |
| 2026-04-27 15:06 | -8.73787 | -36.13461 | 4585 ft | 159 kts | 217° |
| 2026-04-27 15:07 | -8.74628 | -36.14237 | 4599 ft | 168 kts | 218° |
| 2026-04-27 15:07 | -8.75514 | -36.15041 | 4593 ft | 172 kts | 218° |
| 2026-04-27 15:07 | -8.76396 | -36.15851 | 4598 ft | 170 kts | 218° |
| 2026-04-27 15:07 | -8.77271 | -36.16648 | 4585 ft | 168 kts | 217° |
| 2026-04-27 15:08 | -8.78123 | -36.17435 | 4586 ft | 164 kts | 219° |
| 2026-04-27 15:08 | -8.78963 | -36.18212 | 4589 ft | 164 kts | 217° |
| 2026-04-27 15:08 | -8.79793 | -36.18986 | 4599 ft | 165 kts | 218° |
| 2026-04-27 15:08 | -8.80653 | -36.19777 | 4592 ft | 166 kts | 218° |
| 2026-04-27 15:09 | -8.81493 | -36.20569 | 4594 ft | 164 kts | 218° |
| 2026-04-27 15:09 | -8.82328 | -36.21345 | 4587 ft | 162 kts | 219° |
| 2026-04-27 15:09 | -8.83159 | -36.22105 | 4579 ft | 160 kts | 217° |
| 2026-04-27 15:09 | -8.83973 | -36.22852 | 4582 ft | 157 kts | 219° |
| 2026-04-27 15:10 | -8.84787 | -36.23592 | 4580 ft | 158 kts | 218° |
| 2026-04-27 15:10 | -8.85598 | -36.24332 | 4572 ft | 156 kts | 218° |
| 2026-04-27 15:10 | -8.86404 | -36.25063 | 4575 ft | 156 kts | 217° |
| 2026-04-27 15:10 | -8.87198 | -36.25809 | 4583 ft | 158 kts | 219° |
| 2026-04-27 15:11 | -8.88020 | -36.26555 | 4583 ft | 160 kts | 217° |
| 2026-04-27 15:11 | -8.88853 | -36.27306 | 4579 ft | 161 kts | 218° |
| 2026-04-27 15:11 | -8.89694 | -36.28060 | 4581 ft | 161 kts | 218° |
| 2026-04-27 15:11 | -8.90524 | -36.28808 | 4581 ft | 159 kts | 217° |
| 2026-04-27 15:12 | -8.91356 | -36.29559 | 4575 ft | 160 kts | 218° |
| 2026-04-27 15:12 | -8.92185 | -36.30313 | 4583 ft | 161 kts | 218° |
| 2026-04-27 15:12 | -8.93019 | -36.31066 | 4580 ft | 161 kts | 218° |
| 2026-04-27 15:12 | -8.93843 | -36.31814 | 4576 ft | 157 kts | 218° |
| 2026-04-27 15:13 | -8.94660 | -36.32558 | 4579 ft | 158 kts | 218° |
| 2026-04-27 15:13 | -8.95482 | -36.33301 | 4569 ft | 157 kts | 216° |
| 2026-04-27 15:13 | -8.96289 | -36.34041 | 4576 ft | 157 kts | 217° |
| 2026-04-27 15:13 | -8.97100 | -36.34771 | 4574 ft | 159 kts | 216° |
| 2026-04-27 15:14 | -8.97923 | -36.35523 | 4576 ft | 160 kts | 218° |
| 2026-04-27 15:14 | -8.98759 | -36.36275 | 4565 ft | 160 kts | 217° |
| 2026-04-27 15:14 | -8.99585 | -36.37020 | 4575 ft | 160 kts | 218° |
| 2026-04-27 15:14 | -9.00410 | -36.37774 | 4580 ft | 160 kts | 218° |
| 2026-04-27 15:15 | -9.01242 | -36.38526 | 4570 ft | 159 kts | 217° |
| 2026-04-27 15:15 | -9.02071 | -36.39277 | 4576 ft | 160 kts | 218° |
| 2026-04-27 15:15 | -9.02906 | -36.40021 | 4570 ft | 160 kts | 217° |
| 2026-04-27 15:15 | -9.03745 | -36.40772 | 4575 ft | 160 kts | 217° |
| 2026-04-27 15:16 | -9.04577 | -36.41524 | 4574 ft | 162 kts | 217° |
| 2026-04-27 15:16 | -9.05420 | -36.42283 | 4583 ft | 163 kts | 218° |
| 2026-04-27 15:16 | -9.06271 | -36.43039 | 4575 ft | 162 kts | 217° |
| 2026-04-27 15:16 | -9.07114 | -36.43793 | 4573 ft | 162 kts | 218° |
| 2026-04-27 15:17 | -9.07961 | -36.44547 | 4572 ft | 162 kts | 217° |
| 2026-04-27 15:17 | -9.08803 | -36.45306 | 4577 ft | 162 kts | 217° |
| 2026-04-27 15:17 | -9.09645 | -36.46064 | 4567 ft | 162 kts | 217° |
| 2026-04-27 15:17 | -9.10486 | -36.46820 | 4570 ft | 162 kts | 218° |
| 2026-04-27 15:18 | -9.11339 | -36.47572 | 4573 ft | 162 kts | 217° |
| 2026-04-27 15:18 | -9.12185 | -36.48326 | 4565 ft | 161 kts | 218° |
| 2026-04-27 15:18 | -9.13024 | -36.49071 | 4563 ft | 161 kts | 218° |
| 2026-04-27 15:18 | -9.13860 | -36.49815 | 4575 ft | 162 kts | 216° |
| 2026-04-27 15:19 | -9.14705 | -36.50576 | 4574 ft | 162 kts | 218° |
| 2026-04-27 15:19 | -9.15552 | -36.51323 | 4564 ft | 159 kts | 217° |
| 2026-04-27 15:19 | -9.16384 | -36.52051 | 4566 ft | 158 kts | 217° |
| 2026-04-27 15:19 | -9.17220 | -36.52785 | 4560 ft | 159 kts | 218° |
| 2026-04-27 15:20 | -9.18054 | -36.53527 | 4567 ft | 159 kts | 216° |
| 2026-04-27 15:20 | -9.18893 | -36.54270 | 4569 ft | 161 kts | 217° |
| 2026-04-27 15:20 | -9.19741 | -36.55025 | 4571 ft | 163 kts | 218° |
| 2026-04-27 15:20 | -9.20600 | -36.55777 | 4564 ft | 163 kts | 217° |
| 2026-04-27 15:21 | -9.21462 | -36.56532 | 4574 ft | 165 kts | 217° |
| 2026-04-27 15:21 | -9.22323 | -36.57292 | 4576 ft | 165 kts | 217° |
| 2026-04-27 15:21 | -9.23198 | -36.58059 | 4567 ft | 167 kts | 217° |
| 2026-04-27 15:21 | -9.24080 | -36.58829 | 4562 ft | 167 kts | 218° |
| 2026-04-27 15:22 | -9.24949 | -36.59594 | 4567 ft | 166 kts | 217° |
| 2026-04-27 15:22 | -9.25818 | -36.60361 | 4567 ft | 165 kts | 217° |
| 2026-04-27 15:22 | -9.26680 | -36.61126 | 4563 ft | 164 kts | 217° |
| 2026-04-27 15:22 | -9.27536 | -36.61885 | 4567 ft | 164 kts | 218° |
| 2026-04-27 15:23 | -9.28381 | -36.62630 | 4567 ft | 162 kts | 217° |
| 2026-04-27 15:23 | -9.29229 | -36.63375 | 4550 ft | 158 kts | 218° |
| 2026-04-27 15:23 | -9.30056 | -36.64094 | 4557 ft | 158 kts | 217° |
| 2026-04-27 15:23 | -9.30890 | -36.64830 | 4564 ft | 160 kts | 217° |
| 2026-04-27 15:24 | -9.31744 | -36.65578 | 4555 ft | 162 kts | 217° |
| 2026-04-27 15:24 | -9.32598 | -36.66324 | 4555 ft | 162 kts | 217° |
| 2026-04-27 15:24 | -9.33448 | -36.67066 | 4560 ft | 162 kts | 217° |
| 2026-04-27 15:24 | -9.34308 | -36.67815 | 4557 ft | 163 kts | 217° |
| 2026-04-27 15:25 | -9.35169 | -36.68566 | 4562 ft | 164 kts | 217° |
| 2026-04-27 15:25 | -9.36034 | -36.69322 | 4549 ft | 163 kts | 216° |
| 2026-04-27 15:25 | -9.36885 | -36.70074 | 4551 ft | 162 kts | 217° |
| 2026-04-27 15:25 | -9.37728 | -36.70809 | 4559 ft | 163 kts | 217° |
| 2026-04-27 15:26 | -9.38600 | -36.71558 | 4557 ft | 163 kts | 217° |
| 2026-04-27 15:26 | -9.39453 | -36.72296 | 4551 ft | 163 kts | 217° |
| 2026-04-27 15:26 | -9.40326 | -36.73048 | 4554 ft | 163 kts | 216° |
| 2026-04-27 15:26 | -9.41182 | -36.73795 | 4550 ft | 163 kts | 217° |
| 2026-04-27 15:27 | -9.42032 | -36.74532 | 4553 ft | 164 kts | 217° |
| 2026-04-27 15:27 | -9.42854 | -36.75337 | 4548 ft | 164 kts | 225° |
| 2026-04-27 15:27 | -9.43581 | -36.76234 | 4549 ft | 164 kts | 227° |
| 2026-04-27 15:27 | -9.44310 | -36.77137 | 4548 ft | 165 kts | 226° |
| 2026-04-27 15:28 | -9.45037 | -36.78036 | 4554 ft | 165 kts | 227° |
| 2026-04-27 15:28 | -9.45770 | -36.78940 | 4551 ft | 166 kts | 227° |
| 2026-04-27 15:28 | -9.46506 | -36.79843 | 4545 ft | 165 kts | 226° |
| 2026-04-27 15:28 | -9.47236 | -36.80733 | 4546 ft | 165 kts | 226° |
| 2026-04-27 15:29 | -9.47971 | -36.81626 | 4546 ft | 165 kts | 226° |
| 2026-04-27 15:29 | -9.48708 | -36.82525 | 4543 ft | 166 kts | 226° |
| 2026-04-27 15:29 | -9.49445 | -36.83420 | 4544 ft | 165 kts | 227° |
| 2026-04-27 15:29 | -9.50171 | -36.84303 | 4545 ft | 165 kts | 227° |
| 2026-04-27 15:30 | -9.50907 | -36.85193 | 4546 ft | 164 kts | 227° |
| 2026-04-27 15:30 | -9.51640 | -36.86082 | 4551 ft | 165 kts | 227° |
| 2026-04-27 15:30 | -9.52382 | -36.86978 | 4539 ft | 167 kts | 226° |
| 2026-04-27 15:30 | -9.53128 | -36.87883 | 4550 ft | 168 kts | 227° |
| 2026-04-27 15:31 | -9.53872 | -36.88787 | 4549 ft | 166 kts | 227° |
| 2026-04-27 15:31 | -9.54612 | -36.89678 | 4551 ft | 166 kts | 226° |
| 2026-04-27 15:31 | -9.55367 | -36.90581 | 4552 ft | 168 kts | 226° |
| 2026-04-27 15:31 | -9.56127 | -36.91492 | 4557 ft | 169 kts | 226° |
| 2026-04-27 15:32 | -9.56891 | -36.92401 | 4542 ft | 167 kts | 226° |
| 2026-04-27 15:32 | -9.57636 | -36.93303 | 4535 ft | 167 kts | 227° |
| 2026-04-27 15:32 | -9.58385 | -36.94199 | 4538 ft | 166 kts | 226° |
| 2026-04-27 15:32 | -9.59126 | -36.95099 | 4536 ft | 167 kts | 226° |
| 2026-04-27 15:33 | -9.59863 | -36.95990 | 4536 ft | 167 kts | 226° |
| 2026-04-27 15:33 | -9.60610 | -36.96894 | 4545 ft | 168 kts | 226° |
| 2026-04-27 15:33 | -9.61356 | -36.97805 | 4548 ft | 168 kts | 226° |
| 2026-04-27 15:33 | -9.62107 | -36.98706 | 4547 ft | 167 kts | 226° |
| 2026-04-27 15:34 | -9.62862 | -36.99617 | 4548 ft | 169 kts | 226° |
| 2026-04-27 15:34 | -9.63623 | -37.00532 | 4546 ft | 169 kts | 226° |
| 2026-04-27 15:34 | -9.64383 | -37.01436 | 4547 ft | 169 kts | 226° |
| 2026-04-27 15:34 | -9.65143 | -37.02341 | 4536 ft | 167 kts | 226° |
| 2026-04-27 15:35 | -9.65895 | -37.03238 | 4539 ft | 167 kts | 226° |
| 2026-04-27 15:35 | -9.66656 | -37.04139 | 4538 ft | 169 kts | 226° |
| 2026-04-27 15:35 | -9.67423 | -37.05048 | 4538 ft | 168 kts | 226° |
| 2026-04-27 15:35 | -9.68186 | -37.05959 | 4535 ft | 169 kts | 226° |
| 2026-04-27 15:36 | -9.68944 | -37.06861 | 4536 ft | 167 kts | 226° |
| 2026-04-27 15:36 | -9.69685 | -37.07735 | 4540 ft | 166 kts | 225° |
| 2026-04-27 15:36 | -9.70444 | -37.08636 | 4548 ft | 168 kts | 225° |
| 2026-04-27 15:36 | -9.71210 | -37.09540 | 4549 ft | 169 kts | 226° |
| 2026-04-27 15:37 | -9.71978 | -37.10444 | 4541 ft | 169 kts | 226° |
| 2026-04-27 15:37 | -9.72737 | -37.11337 | 4540 ft | 166 kts | 226° |
| 2026-04-27 15:37 | -9.73495 | -37.12231 | 4538 ft | 168 kts | 226° |
| 2026-04-27 15:37 | -9.74256 | -37.13123 | 4529 ft | 167 kts | 226° |
| 2026-04-27 15:38 | -9.75019 | -37.14029 | 4528 ft | 170 kts | 226° |
| 2026-04-27 15:38 | -9.75785 | -37.14940 | 4535 ft | 170 kts | 226° |
| 2026-04-27 15:38 | -9.76295 | -37.15546 | 4540 ft | 170 kts | 226° |
| 2026-04-27 15:38 | -9.77055 | -37.16447 | 4528 ft | 166 kts | 226° |
| 2026-04-27 15:39 | -9.77809 | -37.17337 | 4540 ft | 167 kts | 226° |
| 2026-04-27 15:39 | -9.78569 | -37.18233 | 4529 ft | 166 kts | 226° |
| 2026-04-27 15:39 | -9.79557 | -37.19399 | 4532 ft | 163 kts | 226° |
| 2026-04-27 15:39 | -9.80306 | -37.20287 | 4532 ft | 167 kts | 226° |
| 2026-04-27 15:40 | -9.80815 | -37.20884 | 4541 ft | 166 kts | 226° |
| 2026-04-27 15:40 | -9.81572 | -37.21775 | 4532 ft | 166 kts | 226° |
| 2026-04-27 15:40 | -9.82312 | -37.22644 | 4525 ft | 164 kts | 226° |
| 2026-04-27 15:40 | -9.83052 | -37.23518 | 4527 ft | 163 kts | 226° |
| 2026-04-27 15:41 | -9.83807 | -37.24412 | 4535 ft | 168 kts | 226° |
| 2026-04-27 15:41 | -9.84560 | -37.25298 | 4530 ft | 167 kts | 226° |
| 2026-04-27 15:41 | -9.85321 | -37.26184 | 4525 ft | 166 kts | 225° |
| 2026-04-27 15:41 | -9.86074 | -37.27070 | 4527 ft | 166 kts | 226° |
| 2026-04-27 15:42 | -9.86830 | -37.27955 | 4535 ft | 167 kts | 226° |
| 2026-04-27 15:42 | -9.87593 | -37.28848 | 4531 ft | 168 kts | 226° |
| 2026-04-27 15:42 | -9.88359 | -37.29742 | 4537 ft | 169 kts | 226° |
| 2026-04-27 15:42 | -9.89131 | -37.30638 | 4536 ft | 169 kts | 226° |
| 2026-04-27 15:43 | -9.89903 | -37.31542 | 4528 ft | 169 kts | 226° |
| 2026-04-27 15:43 | -9.90669 | -37.32444 | 4535 ft | 169 kts | 226° |
| 2026-04-27 15:43 | -9.91432 | -37.33341 | 4542 ft | 169 kts | 225° |
| 2026-04-27 15:43 | -9.92206 | -37.34244 | 4531 ft | 170 kts | 225° |
| 2026-04-27 15:44 | -9.92976 | -37.35147 | 4527 ft | 168 kts | 226° |
| 2026-04-27 15:44 | -9.93740 | -37.36044 | 4539 ft | 169 kts | 226° |
| 2026-04-27 15:44 | -9.94501 | -37.36932 | 4535 ft | 169 kts | 226° |
| 2026-04-27 15:44 | -9.95270 | -37.37840 | 4529 ft | 170 kts | 226° |
| 2026-04-27 15:45 | -9.96036 | -37.38746 | 4534 ft | 166 kts | 225° |
| 2026-04-27 15:45 | -9.96800 | -37.39639 | 4535 ft | 169 kts | 226° |
| 2026-04-27 15:45 | -9.97558 | -37.40523 | 4533 ft | 167 kts | 225° |
| 2026-04-27 15:45 | -9.98313 | -37.41424 | 4528 ft | 166 kts | 226° |
| 2026-04-27 15:46 | -9.99059 | -37.42311 | 4530 ft | 166 kts | 225° |
| 2026-04-27 15:46 | -9.99809 | -37.43207 | 4528 ft | 166 kts | 226° |
| 2026-04-27 15:46 | -10.00561 | -37.44099 | 4526 ft | 166 kts | 225° |
| 2026-04-27 15:46 | -10.01315 | -37.44987 | 4530 ft | 166 kts | 225° |
| 2026-04-27 15:47 | -10.02072 | -37.45878 | 4529 ft | 167 kts | 225° |
| 2026-04-27 15:47 | -10.02832 | -37.46759 | 4533 ft | 166 kts | 225° |
| 2026-04-27 15:47 | -10.03594 | -37.47647 | 4532 ft | 167 kts | 226° |
| 2026-04-27 15:47 | -10.04353 | -37.48534 | 4535 ft | 166 kts | 225° |
| 2026-04-27 15:48 | -10.05087 | -37.49433 | 4525 ft | 168 kts | 233° |
| 2026-04-27 15:48 | -10.05605 | -37.50507 | 4523 ft | 170 kts | 243° |
| 2026-04-27 15:48 | -10.06088 | -37.51603 | 4516 ft | 168 kts | 243° |
| 2026-04-27 15:49 | -10.07059 | -37.53768 | 4524 ft | 170 kts | 242° |
| 2026-04-27 15:49 | -10.07546 | -37.54867 | 4523 ft | 171 kts | 243° |
| 2026-04-27 15:49 | -10.08033 | -37.55964 | 4518 ft | 170 kts | 242° |
| 2026-04-27 15:49 | -10.08516 | -37.57061 | 4526 ft | 171 kts | 243° |
| 2026-04-27 15:50 | -10.09005 | -37.58161 | 4518 ft | 171 kts | 242° |
| 2026-04-27 15:50 | -10.09481 | -37.59255 | 4526 ft | 170 kts | 242° |
| 2026-04-27 15:50 | -10.09959 | -37.60356 | 4521 ft | 169 kts | 241° |
| 2026-04-27 15:50 | -10.10434 | -37.61445 | 4517 ft | 169 kts | 243° |
| 2026-04-27 15:51 | -10.10907 | -37.62537 | 4530 ft | 167 kts | 244° |
| 2026-04-27 15:51 | -10.11375 | -37.63613 | 4530 ft | 171 kts | 242° |
| 2026-04-27 15:51 | -10.11877 | -37.64722 | 4539 ft | 176 kts | 242° |
| 2026-04-27 15:51 | -10.12380 | -37.65833 | 4521 ft | 170 kts | 242° |
| 2026-04-27 15:52 | -10.12874 | -37.66930 | 4522 ft | 172 kts | 242° |
| 2026-04-27 15:52 | -10.13377 | -37.68022 | 4522 ft | 169 kts | 243° |
| 2026-04-27 15:52 | -10.13868 | -37.69111 | 4529 ft | 171 kts | 243° |
| 2026-04-27 15:52 | -10.14376 | -37.70226 | 4527 ft | 175 kts | 241° |
| 2026-04-27 15:53 | -10.14880 | -37.71352 | 4516 ft | 174 kts | 243° |
| 2026-04-27 15:53 | -10.15380 | -37.72449 | 4529 ft | 170 kts | 242° |
| 2026-04-27 15:53 | -10.15874 | -37.73560 | 4524 ft | 173 kts | 242° |
| 2026-04-27 15:53 | -10.16367 | -37.74677 | 4518 ft | 173 kts | 242° |
| 2026-04-27 15:54 | -10.16858 | -37.75786 | 4525 ft | 173 kts | 242° |
| 2026-04-27 15:54 | -10.17355 | -37.76899 | 4515 ft | 172 kts | 242° |
| 2026-04-27 15:54 | -10.17845 | -37.77996 | 4525 ft | 170 kts | 243° |
| 2026-04-27 15:54 | -10.18342 | -37.79096 | 4520 ft | 170 kts | 242° |
| 2026-04-27 15:55 | -10.18832 | -37.80194 | 4514 ft | 170 kts | 242° |
| 2026-04-27 15:55 | -10.19161 | -37.80916 | 4507 ft | 169 kts | 242° |
| 2026-04-27 15:55 | -10.19805 | -37.82332 | 4507 ft | 166 kts | 242° |
| 2026-04-27 15:55 | -10.20288 | -37.83390 | 4508 ft | 164 kts | 243° |
| 2026-04-27 15:56 | -10.20780 | -37.84459 | 4506 ft | 169 kts | 242° |
| 2026-04-27 15:56 | -10.21278 | -37.85549 | 4495 ft | 170 kts | 242° |
| 2026-04-27 15:56 | -10.21770 | -37.86634 | 4518 ft | 171 kts | 242° |
| 2026-04-27 15:56 | -10.22278 | -37.87742 | 4497 ft | 172 kts | 242° |
| 2026-04-27 15:57 | -10.22773 | -37.88845 | 4512 ft | 173 kts | 243° |
| 2026-04-27 15:57 | -10.23279 | -37.89960 | 4513 ft | 175 kts | 242° |
| 2026-04-27 15:57 | -10.23788 | -37.91061 | 4514 ft | 173 kts | 242° |
| 2026-04-27 15:57 | -10.24290 | -37.92169 | 4498 ft | 172 kts | 242° |
| 2026-04-27 15:58 | -10.24795 | -37.93259 | 4509 ft | 169 kts | 242° |
| 2026-04-27 15:58 | -10.25299 | -37.94339 | 4509 ft | 170 kts | 242° |
| 2026-04-27 15:58 | -10.25796 | -37.95424 | 4504 ft | 169 kts | 242° |
| 2026-04-27 15:58 | -10.26289 | -37.96506 | 4490 ft | 169 kts | 242° |
| 2026-04-27 15:59 | -10.26781 | -37.97589 | 4508 ft | 168 kts | 242° |
| 2026-04-27 15:59 | -10.27278 | -37.98671 | 4506 ft | 170 kts | 242° |
| 2026-04-27 15:59 | -10.27779 | -37.99759 | 4495 ft | 171 kts | 242° |
| 2026-04-27 15:59 | -10.28289 | -38.00846 | 4499 ft | 170 kts | 242° |
| 2026-04-27 16:00 | -10.28794 | -38.01931 | 4505 ft | 170 kts | 242° |
| 2026-04-27 16:00 | -10.29130 | -38.02649 | 4498 ft | 170 kts | 242° |
| 2026-04-27 16:00 | -10.29796 | -38.04095 | 4498 ft | 169 kts | 242° |
| 2026-04-27 16:00 | -10.30291 | -38.05171 | 4499 ft | 170 kts | 242° |
| 2026-04-27 16:01 | -10.30792 | -38.06260 | 4513 ft | 171 kts | 242° |
| 2026-04-27 16:01 | -10.31293 | -38.07355 | 4498 ft | 171 kts | 242° |
| 2026-04-27 16:01 | -10.31795 | -38.08446 | 4509 ft | 170 kts | 242° |
| 2026-04-27 16:01 | -10.32301 | -38.09531 | 4505 ft | 170 kts | 241° |
| 2026-04-27 16:02 | -10.32811 | -38.10621 | 4499 ft | 171 kts | 242° |
| 2026-04-27 16:02 | -10.33311 | -38.11703 | 4502 ft | 169 kts | 242° |
| 2026-04-27 16:02 | -10.33810 | -38.12789 | 4496 ft | 169 kts | 242° |
| 2026-04-27 16:02 | -10.34314 | -38.13876 | 4498 ft | 171 kts | 241° |
| 2026-04-27 16:03 | -10.34808 | -38.14958 | 4489 ft | 166 kts | 242° |
| 2026-04-27 16:03 | -10.35296 | -38.16024 | 4495 ft | 166 kts | 242° |
| 2026-04-27 16:03 | -10.35799 | -38.17093 | 4496 ft | 169 kts | 241° |
| 2026-04-27 16:03 | -10.36297 | -38.18169 | 4498 ft | 167 kts | 242° |
| 2026-04-27 16:04 | -10.36803 | -38.19244 | 4498 ft | 170 kts | 241° |
| 2026-04-27 16:04 | -10.37312 | -38.20318 | 4508 ft | 171 kts | 241° |
| 2026-04-27 16:04 | -10.37816 | -38.21416 | 4515 ft | 171 kts | 242° |
| 2026-04-27 16:04 | -10.38321 | -38.22510 | 4503 ft | 169 kts | 241° |
| 2026-04-27 16:05 | -10.38819 | -38.23589 | 4500 ft | 169 kts | 242° |
| 2026-04-27 16:05 | -10.39313 | -38.24670 | 4502 ft | 168 kts | 241° |
| 2026-04-27 16:05 | -10.39814 | -38.25752 | 4504 ft | 170 kts | 242° |
| 2026-04-27 16:05 | -10.40313 | -38.26831 | 4505 ft | 168 kts | 241° |
| 2026-04-27 16:06 | -10.40816 | -38.27912 | 4515 ft | 171 kts | 242° |
| 2026-04-27 16:06 | -10.41321 | -38.28990 | 4503 ft | 171 kts | 241° |
| 2026-04-27 16:06 | -10.41832 | -38.30076 | 4499 ft | 172 kts | 241° |
| 2026-04-27 16:06 | -10.42344 | -38.31167 | 4518 ft | 172 kts | 242° |
| 2026-04-27 16:07 | -10.42864 | -38.32270 | 4505 ft | 171 kts | 242° |
| 2026-04-27 16:07 | -10.43377 | -38.33357 | 4517 ft | 171 kts | 241° |
| 2026-04-27 16:07 | -10.43890 | -38.34459 | 4503 ft | 171 kts | 242° |
| 2026-04-27 16:07 | -10.44400 | -38.35554 | 4504 ft | 169 kts | 242° |
| 2026-04-27 16:08 | -10.44885 | -38.36626 | 4516 ft | 169 kts | 242° |
| 2026-04-27 16:08 | -10.45402 | -38.37715 | 4513 ft | 171 kts | 240° |
| 2026-04-27 16:08 | -10.45910 | -38.38812 | 4513 ft | 172 kts | 242° |
| 2026-04-27 16:08 | -10.46493 | -38.39867 | 4494 ft | 170 kts | 226° |
| 2026-04-27 16:09 | -10.47509 | -38.40383 | 4457 ft | 161 kts | 192° |
| 2026-04-27 16:09 | -10.49656 | -38.41027 | 4454 ft | 162 kts | 193° |
| 2026-04-27 16:09 | -10.50717 | -38.41348 | 4451 ft | 158 kts | 193° |
| 2026-04-27 16:10 | -10.52842 | -38.41998 | 4468 ft | 160 kts | 194° |
| 2026-04-27 16:10 | -10.54978 | -38.42652 | 4462 ft | 160 kts | 193° |
| 2026-04-27 16:11 | -10.56057 | -38.42988 | 4452 ft | 162 kts | 193° |
| 2026-04-27 16:11 | -10.58177 | -38.43652 | 4458 ft | 160 kts | 194° |
| 2026-04-27 16:12 | -10.60317 | -38.44308 | 4437 ft | 160 kts | 193° |
| 2026-04-27 16:12 | -10.61383 | -38.44629 | 4428 ft | 162 kts | 193° |
| 2026-04-27 16:12 | -10.63563 | -38.45274 | 4343 ft | 164 kts | 193° |
| 2026-04-27 16:13 | -10.64668 | -38.45596 | 4297 ft | 167 kts | 193° |
| 2026-04-27 16:13 | -10.66885 | -38.46248 | 4209 ft | 166 kts | 193° |
| 2026-04-27 16:13 | -10.68013 | -38.46575 | 4142 ft | 168 kts | 193° |
| 2026-04-27 16:14 | -10.70214 | -38.47220 | 4061 ft | 165 kts | 193° |
| 2026-04-27 16:14 | -10.72444 | -38.47890 | 3948 ft | 166 kts | 192° |
| 2026-04-27 16:15 | -10.74639 | -38.48550 | 3854 ft | 164 kts | 193° |
| 2026-04-27 16:15 | -10.76844 | -38.49209 | 3765 ft | 166 kts | 193° |
| 2026-04-27 16:16 | -10.79064 | -38.49880 | 3670 ft | 164 kts | 193° |
| 2026-04-27 16:16 | -10.81240 | -38.50529 | 3682 ft | 165 kts | 193° |
| 2026-04-27 16:17 | -10.83413 | -38.51165 | 3663 ft | 161 kts | 193° |
| 2026-04-27 16:17 | -10.85563 | -38.51789 | 3673 ft | 163 kts | 192° |
| 2026-04-27 16:18 | -10.87745 | -38.52442 | 3662 ft | 161 kts | 193° |
| 2026-04-27 16:18 | -10.89863 | -38.53070 | 3672 ft | 157 kts | 192° |
| 2026-04-27 16:19 | -10.90925 | -38.53388 | 3602 ft | 161 kts | 193° |
| 2026-04-27 16:19 | -10.92009 | -38.53708 | 3520 ft | 167 kts | 193° |
| 2026-04-27 16:20 | -10.95481 | -38.54300 | 3240 ft | 168 kts | 184° |
| 2026-04-27 16:20 | -10.96658 | -38.54460 | 3140 ft | 173 kts | 185° |
| 2026-04-27 16:20 | -10.98984 | -38.54757 | 3096 ft | 162 kts | 185° |
| 2026-04-27 16:21 | -11.00093 | -38.54895 | 3121 ft | 163 kts | 184° |
| 2026-04-27 16:21 | -11.03508 | -38.55350 | 3122 ft | 163 kts | 185° |
| 2026-04-27 16:22 | -11.04617 | -38.55482 | 3125 ft | 165 kts | 184° |
| 2026-04-27 16:22 | -11.06896 | -38.55716 | 3111 ft | 163 kts | 180° |
| 2026-04-27 16:22 | -11.08029 | -38.55782 | 3102 ft | 162 kts | 180° |
| 2026-04-27 16:23 | -11.09155 | -38.55848 | 3110 ft | 162 kts | 180° |
| 2026-04-27 16:23 | -11.11356 | -38.55742 | 3067 ft | 158 kts | 148° |
| 2026-04-27 16:23 | -11.11912 | -38.54814 | 3017 ft | 161 kts | 101° |
| 2026-04-27 16:24 | -11.11931 | -38.53666 | 3018 ft | 162 kts | 92° |
| 2026-04-27 16:24 | -11.11964 | -38.51389 | 3029 ft | 161 kts | 92° |
| 2026-04-27 16:25 | -11.11971 | -38.49074 | 3032 ft | 166 kts | 92° |
| 2026-04-27 16:25 | -11.11986 | -38.46761 | 3009 ft | 158 kts | 92° |
| 2026-04-27 16:26 | -11.11988 | -38.44518 | 3023 ft | 160 kts | 92° |
| 2026-04-27 16:26 | -11.11989 | -38.42188 | 3009 ft | 164 kts | 91° |
| 2026-04-27 16:27 | -11.12269 | -38.40379 | 2967 ft | 157 kts | 128° |
| 2026-04-27 16:27 | -11.14580 | -38.41630 | 2823 ft | 181 kts | 273° |
| 2026-04-27 16:28 | -11.13114 | -38.43733 | 2768 ft | 185 kts | 313° |
| 2026-04-27 16:28 | -11.11395 | -38.45621 | 2770 ft | 179 kts | 313° |
| 2026-04-27 16:29 | -11.10987 | -38.48765 | 2655 ft | 165 kts | 208° |
| 2026-04-27 16:30 | -11.13142 | -38.49655 | 2651 ft | 171 kts | 199° |
| 2026-04-27 16:30 | -11.15208 | -38.49592 | 2549 ft | 156 kts | 131° |
| 2026-04-27 16:31 | -11.15960 | -38.46321 | 2548 ft | 166 kts | 102° |
| 2026-04-27 16:31 | -11.16349 | -38.44060 | 2539 ft | 159 kts | 102° |
| 2026-04-27 16:32 | -11.16731 | -38.41847 | 2530 ft | 160 kts | 102° |
| 2026-04-27 16:32 | -11.16811 | -38.40750 | 2510 ft | 157 kts | 82° |
| 2026-04-27 16:33 | -11.15070 | -38.39940 | 2376 ft | 161 kts | 337° |
| 2026-04-27 16:33 | -11.14357 | -38.40736 | 2330 ft | 152 kts | 296° |
| 2026-04-27 16:33 | -11.13926 | -38.41668 | 2306 ft | 140 kts | 292° |
| 2026-04-27 16:33 | -11.13715 | -38.42606 | 2315 ft | 135 kts | 272° |
| 2026-04-27 16:34 | -11.13653 | -38.43558 | 2405 ft | 136 kts | 270° |
| 2026-04-27 16:34 | -11.13564 | -38.44533 | 2167 ft | 139 kts | 274° |
| 2026-04-27 16:34 | -11.13439 | -38.45522 | 2026 ft | 143 kts | 277° |
| 2026-04-27 16:34 | -11.13254 | -38.46514 | 1595 ft | 135 kts | 281° |
| 2026-04-27 16:35 | -11.13000 | -38.47374 | 1090 ft | 119 kts | 285° |
| 2026-04-27 16:35 | -11.12746 | -38.48143 | 746 ft | 110 kts | 286° |
| 2026-04-27 16:35 | -11.12336 | -38.49215 | 747 ft | 52 kts | 290° |
| 2026-04-27 16:36 | -11.12315 | -38.49319 | 745 ft | 0 kts | 134° |
| 2026-04-27 16:36 | -11.12341 | -38.49312 | 747 ft | 13 kts | 183° |
| 2026-04-27 16:36 | -11.12375 | -38.49322 | 747 ft | 0 kts | 25° |